Alpine Forest, California
Current Conditions -  °F | °C
As of 10:55 AM on Monday 20 Oct 2014 (Local Time) from KTSP Reporting Station
Haze Haze  
Wind Chill: 68°   Ceiling: Unl
Heat Index: 68°   Visibility: 1.5mi
Dew Point: 41°   Wind: 9mph
Humidity: 37%   Direction: 310°NW
Pressure: 30.04"   Gusts: NA
Location:  35.1338°N, 118.552°W
Report Text: KTSP 201755Z AUTO 31008KT 1 1/2SM HZ CLR 20/05 A3004 RMK AO2
Loading
Personal Weather Stations






























Interactive Weather Map New forecast layout! Learn more

10-Day Weather Forecast

Advertisements
Track Severe Weather on mobile